アトランタ の空港の天気 - METARとTAF

ハーツフィールド・ジャクソン・アトランタ国際空港 ( KATL / ATL ) - アメリカ ジョージア州アトランタ
飛行場実況気象(Metar)
観測時間10/16 03:52 EDT (10/16 07:52 UTC)
風向・風速北東 3m/s
視程800m
天気現象弱い雨 もや
全天を覆う雲 雲底高度 90m
気温17.8℃
湿度93%
気圧1010hPa
METARKATL 160752Z 04006KT 1/2SM R09R/P6000FT -RA BR OVC003 18/17 A2985 RMK AO2 SFC VIS 3 SLP100 CIG 002V004 TWRINC P0001 T01780167
過去の天気等 Google飛行場航空写真 Wunderground天気予報

過去48時間のMETAR

飛行場予報(TAF)
発表時間: 10/16 03:34 EDT (10/16 07:34 UTC)
予報対象時間: 16日4時 EDT ~ 17日8時 EDT
風向・風速東南東 3m/s
視程4830m
天気現象弱いしゅう雨 もや
全天を覆う雲 雲底高度 90m
16日8時 EDT から
風向・風速西南西 3m/s
視程6440m
天気現象弱いしゅう雨 もや
全天を覆う雲 雲底高度 180m
16日11時 EDT から
風向・風速西北西 5m/s 瞬間風速 8m/s
視程10km以上
全天の8割程度の雲 雲底高度 460m
16日13時 EDT から
風向・風速北西 6m/s 瞬間風速 10m/s
視程10km以上
全天の8割程度の雲 雲底高度 1220m
16日15時 EDT から
風向・風速北西 7m/s 瞬間風速 13m/s
視程10km以上
全天の4割程度の雲 雲底高度 6100m
16日21時 EDT から
風向・風速北西 5m/s
視程10km以上
少しの雲 雲底高度 7620m
KATL 160734Z 1608/1712 12006KT 3SM -SHRA BR OVC003
FM161200 24005KT 4SM -SHRA BR OVC006
FM161500 29010G15KT P6SM BKN015
FM161700 31012G20KT P6SM BKN040
FM161900 31013G25KT P6SM SCT200
FM170100 32010KT P6SM FEW250